Italic G — IBYH — position and weather

sailwx.info

Track history (hours):
 
Tides and Currents Weather Stations Pressure Air Temp Water Temp Dewpoint Dewpoint Depression Visibility Wind Speed Wind Dir Waves Ship Positions

Italic G

Last reported at 2014-Jul-02 06:33 UTC. Time now 2014-Jul-24 17:03 UTC.
Position N 30°29' E 122°56'.
Warning: this ship's position is 22 days out of date.

Length 229 m; draft 7.8 m.

Type: Cargo ship. MMSI: 247282300.

Date/timePositionNaut miles runAvg speedWind from/ knotsBaromVisibWave heightAir tempDewpointWater temp
2014-Jul-02 06:33N 30°29' E 122°56'1212.1
2014-Jul-02 05:33N 30°36' E 122°45'1110.6
2014-Jul-02 04:33N 30°44' E 122°37'2 1.4
2014-Jul-02 03:22N 30°46' E 122°36'0 0.2
2014-Jul-02 02:22N 30°46' E 122°36'0 0.1
2014-Jul-02 01:16N 30°46' E 122°36'0 0.1
2014-Jul-02 00:28N 30°46' E 122°36'0 0.0
2014-Jul-01 23:28N 30°46' E 122°36'0 0.1
2014-Jul-01 22:32N 30°46' E 122°36'0 0.1
2014-Jul-01 21:28N 30°46' E 122°36'0 0.1
2014-Jul-01 20:28N 30°46' E 122°36'0 0.1
2014-Jul-01 19:26N 30°46' E 122°36'0 0.1
2014-Jul-01 18:32N 30°46' E 122°36'0 0.1
2014-Jul-01 17:22N 30°46' E 122°36'0 0.1
2014-Jul-01 16:32N 30°46' E 122°36'0 0.1
2014-Jul-01 15:28N 30°46' E 122°36'0 0.1
2014-Jul-01 14:32N 30°46' E 122°36'0 0.2
2014-Jul-01 13:28N 30°46' E 122°36'4 4.3
2014-Jul-01 12:33N 30°48' E 122°32'1212.5
2014-Jul-01 11:33N 31°00' E 122°31'4012.4
2014-Jul-01 08:22N 31°17' E 121°49'6 8.0
2014-Jul-01 07:33N 31°21' E 121°43'2 1.8
2014-Jul-01 06:31N 31°22' E 121°41'0 0.0
2014-Jul-01 05:13N 31°22' E 121°41'0 0.0
2014-Jul-01 04:25N 31°22' E 121°41'0 0.1
2014-Jul-01 03:31N 31°22' E 121°41'1 0.9
2014-Jul-01 02:25N 31°22' E 121°42'0 0.1
2014-Jul-01 01:31N 31°22' E 121°42'0 0.0
2014-Jul-01 00:25N 31°22' E 121°42'0 0.0
2014-Jun-30 23:31N 31°22' E 121°42'0 0.0
2014-Jun-30 22:31N 31°22' E 121°42'0 0.0
2014-Jun-30 21:31N 31°22' E 121°42'0 0.0
2014-Jun-30 20:25N 31°22' E 121°42'0 0.0
2014-Jun-30 19:31N 31°22' E 121°42'0 0.0
2014-Jun-30 18:31N 31°22' E 121°42'0 0.0
2014-Jun-30 17:19N 31°22' E 121°42'0 0.0
2014-Jun-30 16:25N 31°22' E 121°42'0 0.0
2014-Jun-30 15:19N 31°22' E 121°42'0 0.0
2014-Jun-30 14:25N 31°22' E 121°42'0 0.0
2014-Jun-30 13:31N 31°22' E 121°42'0 0.0
2014-Jun-30 12:31N 31°22' E 121°42'0 0.0
2014-Jun-30 10:13N 31°22' E 121°42'0 0.0
2014-Jun-30 09:19N 31°22' E 121°42'0 0.0
2014-Jun-30 08:13N 31°22' E 121°42'0 0.0
2014-Jun-30 07:31N 31°22' E 121°42'0 0.0
2014-Jun-30 06:19N 31°22' E 121°42'0 0.0
2014-Jun-30 05:25N 31°22' E 121°42'0 0.0
2014-Jun-30 04:31N 31°22' E 121°42'0 0.0
2014-Jun-30 03:19N 31°22' E 121°42'0 0.0
2014-Jun-30 01:31N 31°22' E 121°42'0 0.0
2014-Jun-30 00:31N 31°22' E 121°42'0 0.0
2014-Jun-29 23:07N 31°22' E 121°42'0 0.0
2014-Jun-29 22:31N 31°22' E 121°42'0 0.0
2014-Jun-29 20:19N 31°22' E 121°42'0 0.0
2014-Jun-29 19:25N 31°22' E 121°42'0 0.0
2014-Jun-29 18:31N 31°22' E 121°42'0 0.0
2014-Jun-29 17:19N 31°22' E 121°42'0 0.0
2014-Jun-29 16:13N 31°22' E 121°42'0 0.0
2014-Jun-29 15:19N 31°22' E 121°42'0 0.0
2014-Jun-29 14:31N 31°22' E 121°42'0 0.0
2014-Jun-29 13:25N 31°22' E 121°42'0 0.0
2014-Jun-29 12:31N 31°22' E 121°42'0 0.0
2014-Jun-29 11:31N 31°22' E 121°42'0 0.0
2014-Jun-29 10:13N 31°22' E 121°42'0 0.0
2014-Jun-29 09:31N 31°22' E 121°42'0 0.0
2014-Jun-29 08:25N 31°22' E 121°42'0 0.0
2014-Jun-29 07:25N 31°22' E 121°42'0 0.0
2014-Jun-29 06:31N 31°22' E 121°42'0 0.0
2014-Jun-29 05:19N 31°22' E 121°42'0 0.0
2014-Jun-29 04:31N 31°22' E 121°42'0 0.0
2014-Jun-29 03:31N 31°22' E 121°42'0 0.0
2014-Jun-29 02:13N 31°22' E 121°42'0 0.0
2014-Jun-29 01:25N 31°22' E 121°42'0 0.0
2014-Jun-29 00:31N 31°22' E 121°42'0 0.0
2014-Jun-28 23:31N 31°22' E 121°42'0 0.0
2014-Jun-28 22:31N 31°22' E 121°42'0 0.0
2014-Jun-28 21:31N 31°22' E 121°42'0 0.0
2014-Jun-28 20:31N 31°22' E 121°42'0 0.0
2014-Jun-28 19:25N 31°22' E 121°42'0 0.0
2014-Jun-28 18:07N 31°22' E 121°42'0 0.0
2014-Jun-28 17:13N 31°22' E 121°42'0 0.0
2014-Jun-28 16:31N 31°22' E 121°42'0 0.0
2014-Jun-28 15:19N 31°22' E 121°42'0 0.0
2014-Jun-28 14:13N 31°22' E 121°42'0 0.0
2014-Jun-28 13:31N 31°22' E 121°42'0 0.0
2014-Jun-28 12:31N 31°22' E 121°42'0 0.0
2014-Jun-28 11:19N 31°22' E 121°42'0 0.0
2014-Jun-28 10:31N 31°22' E 121°42'0 0.0
2014-Jun-28 09:25N 31°22' E 121°42'0 0.0
2014-Jun-28 08:31N 31°22' E 121°42'0 0.0
2014-Jun-28 07:31N 31°22' E 121°42'0 0.0
2014-Jun-28 05:07N 31°22' E 121°42'0 0.0
2014-Jun-28 04:25N 31°22' E 121°42'0 0.0
2014-Jun-28 03:25N 31°22' E 121°42'0 0.0
2014-Jun-28 01:31N 31°22' E 121°42'0 0.0
2014-Jun-28 00:31N 31°22' E 121°42'0 0.0
2014-Jun-27 23:25N 31°22' E 121°42'0 0.0
2014-Jun-27 22:13N 31°22' E 121°42'0 0.0
2014-Jun-27 21:25N 31°22' E 121°42'0 0.0
2014-Jun-27 20:19N 31°22' E 121°42'0 0.0
2014-Jun-27 19:31N 31°22' E 121°42'0 0.0
2014-Jun-27 18:13N 31°22' E 121°42'0 0.0
2014-Jun-27 17:25N 31°22' E 121°42'0 0.0
2014-Jun-27 16:31N 31°22' E 121°42'0 0.0
2014-Jun-27 15:07N 31°22' E 121°42'0 0.0
2014-Jun-27 14:31N 31°22' E 121°42'0 0.0
2014-Jun-27 13:19N 31°22' E 121°42'0 0.0
2014-Jun-27 12:31N 31°22' E 121°42'0 0.0
2014-Jun-27 11:19N 31°22' E 121°42'0 0.0
2014-Jun-27 10:25N 31°22' E 121°42'0 0.0
2014-Jun-27 09:19N 31°22' E 121°42'0 0.0
2014-Jun-27 08:25N 31°22' E 121°42'0 0.0
2014-Jun-27 07:25N 31°22' E 121°42'0 0.0
2014-Jun-27 06:25N 31°22' E 121°42'0 0.0
2014-Jun-27 05:25N 31°22' E 121°42'0 0.0
2014-Jun-27 04:31N 31°22' E 121°42'0 0.0
2014-Jun-27 03:31N 31°22' E 121°42'0 0.0
2014-Jun-27 02:25N 31°22' E 121°42'0 0.0
2014-Jun-27 01:31N 31°22' E 121°42'0 0.0
2014-Jun-26 23:31N 31°22' E 121°42'0 0.0
2014-Jun-26 21:31N 31°22' E 121°42'0 0.0
2014-Jun-26 20:31N 31°22' E 121°42'0 0.0
2014-Jun-26 19:31N 31°22' E 121°42'0 0.0
2014-Jun-26 18:31N 31°22' E 121°42'0 0.0
2014-Jun-26 17:31N 31°22' E 121°42'0 0.0
2014-Jun-26 16:31N 31°22' E 121°42'0 0.0
2014-Jun-26 15:19N 31°22' E 121°42'0 0.0
2014-Jun-26 14:31N 31°22' E 121°42'0 0.0
2014-Jun-26 13:31N 31°22' E 121°42'0 0.0
2014-Jun-26 12:31N 31°22' E 121°42'0 0.0
2014-Jun-26 11:25N 31°22' E 121°42'0 0.0
2014-Jun-26 10:31N 31°22' E 121°42'0 0.0
2014-Jun-26 09:31N 31°22' E 121°42'0 0.0
2014-Jun-26 08:31N 31°22' E 121°42'0 0.0
2014-Jun-26 07:31N 31°22' E 121°42'0 0.0
2014-Jun-26 06:31N 31°22' E 121°42'0 0.0
2014-Jun-26 05:31N 31°22' E 121°42'0 0.0
2014-Jun-26 03:31N 31°22' E 121°42'0 0.0
2014-Jun-26 02:31N 31°22' E 121°42'0 0.0
2014-Jun-26 01:19N 31°22' E 121°42'0 0.0
2014-Jun-26 00:31N 31°22' E 121°42'0 0.0
2014-Jun-25 23:25N 31°22' E 121°42'0 0.0
2014-Jun-25 22:13N 31°22' E 121°42'0 0.0
2014-Jun-25 21:31N 31°22' E 121°42'0 0.0
2014-Jun-25 20:25N 31°22' E 121°42'0 0.0
2014-Jun-25 19:25N 31°22' E 121°42'0 0.0
2014-Jun-25 18:31N 31°22' E 121°42'0 0.0
2014-Jun-25 17:31N 31°22' E 121°42'0 0.0
2014-Jun-25 16:25N 31°22' E 121°42'0 0.0
2014-Jun-25 15:19N 31°22' E 121°42'0 0.0
2014-Jun-25 14:25N 31°22' E 121°42'0 0.0
2014-Jun-25 13:31N 31°22' E 121°42'0 0.0
2014-Jun-25 12:25N 31°22' E 121°42'0 0.0
2014-Jun-25 11:25N 31°22' E 121°42'0 0.0
2014-Jun-25 10:31N 31°22' E 121°42'0 0.0
2014-Jun-25 09:31N 31°22' E 121°42'0 0.0
2014-Jun-25 08:31N 31°22' E 121°42'0 0.0
2014-Jun-25 07:31N 31°22' E 121°42'0 0.0
2014-Jun-25 06:31N 31°22' E 121°42'0 0.0
2014-Jun-25 05:31N 31°22' E 121°42'0 0.1
2014-Jun-25 04:19N 31°22' E 121°42'1 1.5
2014-Jun-25 03:28N 31°23' E 121°41'0 0.4
2014-Jun-25 02:28N 31°23' E 121°41'0 0.0
2014-Jun-25 01:16N 31°23' E 121°41'0 0.0
2014-Jun-25 00:28N 31°23' E 121°41'0 0.0
2014-Jun-24 23:28N 31°23' E 121°41'0 0.0
2014-Jun-24 22:28N 31°23' E 121°41'0 0.0
2014-Jun-24 21:22N 31°23' E 121°41'0 0.0
2014-Jun-24 20:10N 31°23' E 121°41'0 0.0
2014-Jun-24 19:28N 31°23' E 121°41'0 0.0
2014-Jun-24 18:28N 31°23' E 121°41'0 0.0
2014-Jun-24 17:22N 31°23' E 121°41'0 0.0
2014-Jun-24 16:22N 31°23' E 121°41'0 0.0
2014-Jun-24 15:16N 31°23' E 121°41'0 0.0
2014-Jun-24 14:28N 31°23' E 121°41'0 0.0
2014-Jun-24 13:22N 31°23' E 121°41'0 0.0
2014-Jun-24 12:22N 31°23' E 121°41'0 0.0
2014-Jun-24 11:28N 31°23' E 121°41'0 0.0
2014-Jun-24 10:22N 31°23' E 121°41'0 0.0
2014-Jun-24 09:28N 31°23' E 121°41'0 0.0
2014-Jun-24 08:28N 31°23' E 121°41'0 0.0
2014-Jun-24 07:28N 31°23' E 121°41'0 0.0
2014-Jun-24 06:22N 31°23' E 121°41'0 0.0
2014-Jun-24 05:28N 31°23' E 121°41'0 0.0
2014-Jun-24 04:28N 31°23' E 121°41'0 0.0
2014-Jun-24 03:22N 31°23' E 121°41'0 0.0
2014-Jun-24 02:10N 31°23' E 121°41'0 0.0
2014-Jun-24 01:28N 31°23' E 121°41'0 0.0
2014-Jun-24 00:16N 31°23' E 121°41'0 0.0
2014-Jun-23 23:28N 31°23' E 121°41'0 0.0
2014-Jun-23 22:28N 31°23' E 121°41'0 0.0
2014-Jun-23 21:28N 31°23' E 121°41'0 0.1
2014-Jun-23 20:28N 31°23' E 121°41'0 0.1
2014-Jun-23 19:28N 31°23' E 121°41'0 0.0
2014-Jun-23 18:28N 31°23' E 121°41'0 0.0
2014-Jun-23 17:28N 31°23' E 121°41'0 0.0
2014-Jun-23 16:28N 31°23' E 121°41'0 0.0
2014-Jun-23 15:10N 31°23' E 121°41'0 0.0
2014-Jun-23 14:28N 31°23' E 121°41'0 0.0
2014-Jun-23 12:28N 31°23' E 121°41'0 0.0
2014-Jun-23 11:28N 31°23' E 121°41'0 0.0
2014-Jun-23 10:28N 31°23' E 121°41'0 0.0
2014-Jun-23 09:22N 31°23' E 121°41'0 0.0
2014-Jun-23 08:28N 31°23' E 121°41'0 0.0
2014-Jun-23 07:28N 31°23' E 121°41'0 0.0
2014-Jun-23 06:22N 31°23' E 121°41'0 0.0
2014-Jun-23 05:28N 31°23' E 121°41'0 0.0
2014-Jun-23 04:28N 31°23' E 121°41'0 0.0
2014-Jun-23 03:10N 31°23' E 121°41'0 0.0
2014-Jun-23 02:28N 31°23' E 121°41'0 0.0
2014-Jun-23 01:28N 31°23' E 121°41'0 0.0
2014-Jun-23 00:04N 31°23' E 121°41'0 0.0
2014-Jun-22 23:28N 31°23' E 121°41'0 0.0
2014-Jun-22 22:28N 31°23' E 121°41'0 0.0
2014-Jun-22 21:22N 31°23' E 121°41'0 0.0
2014-Jun-22 20:28N 31°23' E 121°41'0 0.0
2014-Jun-22 19:28N 31°23' E 121°41'0 0.0
2014-Jun-22 18:16N 31°23' E 121°41'0 0.0
2014-Jun-22 17:23N 31°23' E 121°41'0 0.0
2014-Jun-22 16:29N 31°23' E 121°41'0 0.0
2014-Jun-22 15:29N 31°23' E 121°41'0 0.0
2014-Jun-22 14:29N 31°23' E 121°41'0 0.0
2014-Jun-22 13:29N 31°23' E 121°41'0 0.1
2014-Jun-22 12:29N 31°23' E 121°41'0 0.1
2014-Jun-22 11:29N 31°23' E 121°41'0 0.0
2014-Jun-22 10:29N 31°23' E 121°41'0 0.0
2014-Jun-22 09:23N 31°23' E 121°41'0 0.0
2014-Jun-22 08:29N 31°23' E 121°41'0 0.0
2014-Jun-22 07:23N 31°23' E 121°41'  
Track history (hours):
 
Tides and Currents Weather Stations Pressure Air Temp Water Temp Dewpoint Dewpoint Depression Visibility Wind Speed Wind Dir Waves Ship Positions

Italic G

Last reported at 2014-Jul-02 06:33 UTC. Time now 2014-Jul-24 17:03 UTC.
Position N 30°29' E 122°56'.
Warning: this ship's position is 22 days out of date.

Length 229 m; draft 7.8 m.

Type: Cargo ship. MMSI: 247282300.

Date/timePositionNaut miles runAvg speedWind from/ knotsBaromVisibWave heightAir tempDewpointWater temp
2014-Jul-02 06:33N 30°29' E 122°56'1212.1
2014-Jul-02 05:33N 30°36' E 122°45'1110.6
2014-Jul-02 04:33N 30°44' E 122°37'2 1.4
2014-Jul-02 03:22N 30°46' E 122°36'0 0.2
2014-Jul-02 02:22N 30°46' E 122°36'0 0.1
2014-Jul-02 01:16N 30°46' E 122°36'0 0.1
2014-Jul-02 00:28N 30°46' E 122°36'0 0.0
2014-Jul-01 23:28N 30°46' E 122°36'0 0.1
2014-Jul-01 22:32N 30°46' E 122°36'0 0.1
2014-Jul-01 21:28N 30°46' E 122°36'0 0.1
2014-Jul-01 20:28N 30°46' E 122°36'0 0.1
2014-Jul-01 19:26N 30°46' E 122°36'0 0.1
2014-Jul-01 18:32N 30°46' E 122°36'0 0.1
2014-Jul-01 17:22N 30°46' E 122°36'0 0.1
2014-Jul-01 16:32N 30°46' E 122°36'0 0.1
2014-Jul-01 15:28N 30°46' E 122°36'0 0.1
2014-Jul-01 14:32N 30°46' E 122°36'0 0.2
2014-Jul-01 13:28N 30°46' E 122°36'4 4.3
2014-Jul-01 12:33N 30°48' E 122°32'1212.5
2014-Jul-01 11:33N 31°00' E 122°31'4012.4
2014-Jul-01 08:22N 31°17' E 121°49'6 8.0
2014-Jul-01 07:33N 31°21' E 121°43'2 1.8
2014-Jul-01 06:31N 31°22' E 121°41'0 0.0
2014-Jul-01 05:13N 31°22' E 121°41'0 0.0
2014-Jul-01 04:25N 31°22' E 121°41'0 0.1
2014-Jul-01 03:31N 31°22' E 121°41'1 0.9
2014-Jul-01 02:25N 31°22' E 121°42'0 0.1
2014-Jul-01 01:31N 31°22' E 121°42'0 0.0
2014-Jul-01 00:25N 31°22' E 121°42'0 0.0
2014-Jun-30 23:31N 31°22' E 121°42'0 0.0
2014-Jun-30 22:31N 31°22' E 121°42'0 0.0
2014-Jun-30 21:31N 31°22' E 121°42'0 0.0
2014-Jun-30 20:25N 31°22' E 121°42'0 0.0
2014-Jun-30 19:31N 31°22' E 121°42'0 0.0
2014-Jun-30 18:31N 31°22' E 121°42'0 0.0
2014-Jun-30 17:19N 31°22' E 121°42'0 0.0
2014-Jun-30 16:25N 31°22' E 121°42'0 0.0
2014-Jun-30 15:19N 31°22' E 121°42'0 0.0
2014-Jun-30 14:25N 31°22' E 121°42'0 0.0
2014-Jun-30 13:31N 31°22' E 121°42'0 0.0
2014-Jun-30 12:31N 31°22' E 121°42'0 0.0
2014-Jun-30 10:13N 31°22' E 121°42'0 0.0
2014-Jun-30 09:19N 31°22' E 121°42'0 0.0
2014-Jun-30 08:13N 31°22' E 121°42'0 0.0
2014-Jun-30 07:31N 31°22' E 121°42'0 0.0
2014-Jun-30 06:19N 31°22' E 121°42'0 0.0
2014-Jun-30 05:25N 31°22' E 121°42'0 0.0
2014-Jun-30 04:31N 31°22' E 121°42'0 0.0
2014-Jun-30 03:19N 31°22' E 121°42'0 0.0
2014-Jun-30 01:31N 31°22' E 121°42'0 0.0
2014-Jun-30 00:31N 31°22' E 121°42'0 0.0
2014-Jun-29 23:07N 31°22' E 121°42'0 0.0
2014-Jun-29 22:31N 31°22' E 121°42'0 0.0
2014-Jun-29 20:19N 31°22' E 121°42'0 0.0
2014-Jun-29 19:25N 31°22' E 121°42'0 0.0
2014-Jun-29 18:31N 31°22' E 121°42'0 0.0
2014-Jun-29 17:19N 31°22' E 121°42'0 0.0
2014-Jun-29 16:13N 31°22' E 121°42'0 0.0
2014-Jun-29 15:19N 31°22' E 121°42'0 0.0
2014-Jun-29 14:31N 31°22' E 121°42'0 0.0
2014-Jun-29 13:25N 31°22' E 121°42'0 0.0
2014-Jun-29 12:31N 31°22' E 121°42'0 0.0
2014-Jun-29 11:31N 31°22' E 121°42'0 0.0
2014-Jun-29 10:13N 31°22' E 121°42'0 0.0
2014-Jun-29 09:31N 31°22' E 121°42'0 0.0
2014-Jun-29 08:25N 31°22' E 121°42'0 0.0
2014-Jun-29 07:25N 31°22' E 121°42'0 0.0
2014-Jun-29 06:31N 31°22' E 121°42'0 0.0
2014-Jun-29 05:19N 31°22' E 121°42'0 0.0
2014-Jun-29 04:31N 31°22' E 121°42'0 0.0
2014-Jun-29 03:31N 31°22' E 121°42'0 0.0
2014-Jun-29 02:13N 31°22' E 121°42'0 0.0
2014-Jun-29 01:25N 31°22' E 121°42'0 0.0
2014-Jun-29 00:31N 31°22' E 121°42'0 0.0
2014-Jun-28 23:31N 31°22' E 121°42'0 0.0
2014-Jun-28 22:31N 31°22' E 121°42'0 0.0
2014-Jun-28 21:31N 31°22' E 121°42'0 0.0
2014-Jun-28 20:31N 31°22' E 121°42'0 0.0
2014-Jun-28 19:25N 31°22' E 121°42'0 0.0
2014-Jun-28 18:07N 31°22' E 121°42'0 0.0
2014-Jun-28 17:13N 31°22' E 121°42'0 0.0
2014-Jun-28 16:31N 31°22' E 121°42'0 0.0
2014-Jun-28 15:19N 31°22' E 121°42'0 0.0
2014-Jun-28 14:13N 31°22' E 121°42'0 0.0
2014-Jun-28 13:31N 31°22' E 121°42'0 0.0
2014-Jun-28 12:31N 31°22' E 121°42'0 0.0
2014-Jun-28 11:19N 31°22' E 121°42'0 0.0
2014-Jun-28 10:31N 31°22' E 121°42'0 0.0
2014-Jun-28 09:25N 31°22' E 121°42'0 0.0
2014-Jun-28 08:31N 31°22' E 121°42'0 0.0
2014-Jun-28 07:31N 31°22' E 121°42'0 0.0
2014-Jun-28 05:07N 31°22' E 121°42'0 0.0
2014-Jun-28 04:25N 31°22' E 121°42'0 0.0
2014-Jun-28 03:25N 31°22' E 121°42'0 0.0
2014-Jun-28 01:31N 31°22' E 121°42'0 0.0
2014-Jun-28 00:31N 31°22' E 121°42'0 0.0
2014-Jun-27 23:25N 31°22' E 121°42'0 0.0
2014-Jun-27 22:13N 31°22' E 121°42'0 0.0
2014-Jun-27 21:25N 31°22' E 121°42'0 0.0
2014-Jun-27 20:19N 31°22' E 121°42'0 0.0
2014-Jun-27 19:31N 31°22' E 121°42'0 0.0
2014-Jun-27 18:13N 31°22' E 121°42'0 0.0
2014-Jun-27 17:25N 31°22' E 121°42'0 0.0
2014-Jun-27 16:31N 31°22' E 121°42'0 0.0
2014-Jun-27 15:07N 31°22' E 121°42'0 0.0
2014-Jun-27 14:31N 31°22' E 121°42'0 0.0
2014-Jun-27 13:19N 31°22' E 121°42'0 0.0
2014-Jun-27 12:31N 31°22' E 121°42'0 0.0
2014-Jun-27 11:19N 31°22' E 121°42'0 0.0
2014-Jun-27 10:25N 31°22' E 121°42'0 0.0
2014-Jun-27 09:19N 31°22' E 121°42'0 0.0
2014-Jun-27 08:25N 31°22' E 121°42'0 0.0
2014-Jun-27 07:25N 31°22' E 121°42'0 0.0
2014-Jun-27 06:25N 31°22' E 121°42'0 0.0
2014-Jun-27 05:25N 31°22' E 121°42'0 0.0
2014-Jun-27 04:31N 31°22' E 121°42'0 0.0
2014-Jun-27 03:31N 31°22' E 121°42'0 0.0
2014-Jun-27 02:25N 31°22' E 121°42'0 0.0
2014-Jun-27 01:31N 31°22' E 121°42'0 0.0
2014-Jun-26 23:31N 31°22' E 121°42'0 0.0
2014-Jun-26 21:31N 31°22' E 121°42'0 0.0
2014-Jun-26 20:31N 31°22' E 121°42'0 0.0
2014-Jun-26 19:31N 31°22' E 121°42'0 0.0
2014-Jun-26 18:31N 31°22' E 121°42'0 0.0
2014-Jun-26 17:31N 31°22' E 121°42'0 0.0
2014-Jun-26 16:31N 31°22' E 121°42'0 0.0
2014-Jun-26 15:19N 31°22' E 121°42'0 0.0
2014-Jun-26 14:31N 31°22' E 121°42'0 0.0
2014-Jun-26 13:31N 31°22' E 121°42'0 0.0
2014-Jun-26 12:31N 31°22' E 121°42'0 0.0
2014-Jun-26 11:25N 31°22' E 121°42'0 0.0
2014-Jun-26 10:31N 31°22' E 121°42'0 0.0
2014-Jun-26 09:31N 31°22' E 121°42'0 0.0
2014-Jun-26 08:31N 31°22' E 121°42'0 0.0
2014-Jun-26 07:31N 31°22' E 121°42'0 0.0
2014-Jun-26 06:31N 31°22' E 121°42'0 0.0
2014-Jun-26 05:31N 31°22' E 121°42'0 0.0
2014-Jun-26 03:31N 31°22' E 121°42'0 0.0
2014-Jun-26 02:31N 31°22' E 121°42'0 0.0
2014-Jun-26 01:19N 31°22' E 121°42'0 0.0
2014-Jun-26 00:31N 31°22' E 121°42'0 0.0
2014-Jun-25 23:25N 31°22' E 121°42'0 0.0
2014-Jun-25 22:13N 31°22' E 121°42'0 0.0
2014-Jun-25 21:31N 31°22' E 121°42'0 0.0
2014-Jun-25 20:25N 31°22' E 121°42'0 0.0
2014-Jun-25 19:25N 31°22' E 121°42'0 0.0
2014-Jun-25 18:31N 31°22' E 121°42'0 0.0
2014-Jun-25 17:31N 31°22' E 121°42'0 0.0
2014-Jun-25 16:25N 31°22' E 121°42'0 0.0
2014-Jun-25 15:19N 31°22' E 121°42'0 0.0
2014-Jun-25 14:25N 31°22' E 121°42'0 0.0
2014-Jun-25 13:31N 31°22' E 121°42'0 0.0
2014-Jun-25 12:25N 31°22' E 121°42'0 0.0
2014-Jun-25 11:25N 31°22' E 121°42'0 0.0
2014-Jun-25 10:31N 31°22' E 121°42'0 0.0
2014-Jun-25 09:31N 31°22' E 121°42'0 0.0
2014-Jun-25 08:31N 31°22' E 121°42'0 0.0
2014-Jun-25 07:31N 31°22' E 121°42'0 0.0
2014-Jun-25 06:31N 31°22' E 121°42'0 0.0
2014-Jun-25 05:31N 31°22' E 121°42'0 0.1
2014-Jun-25 04:19N 31°22' E 121°42'1 1.5
2014-Jun-25 03:28N 31°23' E 121°41'0 0.4
2014-Jun-25 02:28N 31°23' E 121°41'0 0.0
2014-Jun-25 01:16N 31°23' E 121°41'0 0.0
2014-Jun-25 00:28N 31°23' E 121°41'0 0.0
2014-Jun-24 23:28N 31°23' E 121°41'0 0.0
2014-Jun-24 22:28N 31°23' E 121°41'0 0.0
2014-Jun-24 21:22N 31°23' E 121°41'0 0.0
2014-Jun-24 20:10N 31°23' E 121°41'0 0.0
2014-Jun-24 19:28N 31°23' E 121°41'0 0.0
2014-Jun-24 18:28N 31°23' E 121°41'0 0.0
2014-Jun-24 17:22N 31°23' E 121°41'0 0.0
2014-Jun-24 16:22N 31°23' E 121°41'0 0.0
2014-Jun-24 15:16N 31°23' E 121°41'0 0.0
2014-Jun-24 14:28N 31°23' E 121°41'0 0.0
2014-Jun-24 13:22N 31°23' E 121°41'0 0.0
2014-Jun-24 12:22N 31°23' E 121°41'0 0.0
2014-Jun-24 11:28N 31°23' E 121°41'0 0.0
2014-Jun-24 10:22N 31°23' E 121°41'0 0.0
2014-Jun-24 09:28N 31°23' E 121°41'0 0.0
2014-Jun-24 08:28N 31°23' E 121°41'0 0.0
2014-Jun-24 07:28N 31°23' E 121°41'0 0.0
2014-Jun-24 06:22N 31°23' E 121°41'0 0.0
2014-Jun-24 05:28N 31°23' E 121°41'0 0.0
2014-Jun-24 04:28N 31°23' E 121°41'0 0.0
2014-Jun-24 03:22N 31°23' E 121°41'0 0.0
2014-Jun-24 02:10N 31°23' E 121°41'0 0.0
2014-Jun-24 01:28N 31°23' E 121°41'0 0.0
2014-Jun-24 00:16N 31°23' E 121°41'0 0.0
2014-Jun-23 23:28N 31°23' E 121°41'0 0.0
2014-Jun-23 22:28N 31°23' E 121°41'0 0.0
2014-Jun-23 21:28N 31°23' E 121°41'0 0.1
2014-Jun-23 20:28N 31°23' E 121°41'0 0.1
2014-Jun-23 19:28N 31°23' E 121°41'0 0.0
2014-Jun-23 18:28N 31°23' E 121°41'0 0.0
2014-Jun-23 17:28N 31°23' E 121°41'0 0.0
2014-Jun-23 16:28N 31°23' E 121°41'0 0.0
2014-Jun-23 15:10N 31°23' E 121°41'0 0.0
2014-Jun-23 14:28N 31°23' E 121°41'0 0.0
2014-Jun-23 12:28N 31°23' E 121°41'0 0.0
2014-Jun-23 11:28N 31°23' E 121°41'0 0.0
2014-Jun-23 10:28N 31°23' E 121°41'0 0.0
2014-Jun-23 09:22N 31°23' E 121°41'0 0.0
2014-Jun-23 08:28N 31°23' E 121°41'0 0.0
2014-Jun-23 07:28N 31°23' E 121°41'0 0.0
2014-Jun-23 06:22N 31°23' E 121°41'0 0.0
2014-Jun-23 05:28N 31°23' E 121°41'0 0.0
2014-Jun-23 04:28N 31°23' E 121°41'0 0.0
2014-Jun-23 03:10N 31°23' E 121°41'0 0.0
2014-Jun-23 02:28N 31°23' E 121°41'0 0.0
2014-Jun-23 01:28N 31°23' E 121°41'0 0.0
2014-Jun-23 00:04N 31°23' E 121°41'0 0.0
2014-Jun-22 23:28N 31°23' E 121°41'0 0.0
2014-Jun-22 22:28N 31°23' E 121°41'0 0.0
2014-Jun-22 21:22N 31°23' E 121°41'0 0.0
2014-Jun-22 20:28N 31°23' E 121°41'0 0.0
2014-Jun-22 19:28N 31°23' E 121°41'0 0.0
2014-Jun-22 18:16N 31°23' E 121°41'0 0.0
2014-Jun-22 17:23N 31°23' E 121°41'0 0.0
2014-Jun-22 16:29N 31°23' E 121°41'0 0.0
2014-Jun-22 15:29N 31°23' E 121°41'0 0.0
2014-Jun-22 14:29N 31°23' E 121°41'0 0.0
2014-Jun-22 13:29N 31°23' E 121°41'0 0.1
2014-Jun-22 12:29N 31°23' E 121°41'0 0.1
2014-Jun-22 11:29N 31°23' E 121°41'0 0.0
2014-Jun-22 10:29N 31°23' E 121°41'0 0.0
2014-Jun-22 09:23N 31°23' E 121°41'0 0.0
2014-Jun-22 08:29N 31°23' E 121°41'0 0.0
2014-Jun-22 07:23N 31°23' E 121°41'  

Dump ship's entire track history